KORL/ORL METAR and TAF weather

Enter ICAO airport designator
Station Type Date Time Source
KORL METAR 2021/09/16 11:53 UTC NOAA

KORL 161153Z 00000KT 10SM CLR 25/24 A2996 RMK AO2 SLP146 T02500239 10256 20239 53014


Station Type Date Time Source
KORL Decoded METAR 2021/09/16 11:53 UTC NOAA

ORLANDO EXECUTIVE AIRPORT, FL, United States (KORL) 28-33N 081-20W 37M
Sep 16, 2021 - 07:53 AM EDT / 2021.09.16 1153 UTC
Wind: Calm:0
Visibility: 10 mile(s):0
Sky conditions: clear
Temperature: 77.0 F (25.0 C)
Dew Point: 75.0 F (23.9 C)
Relative Humidity: 93%
Pressure (altimeter): 29.96 in. Hg (1014 hPa)
Pressure tendency: 0.04 inches (1.4 hPa) higher than three hours ago
ob: KORL 161153Z 00000KT 10SM CLR 25/24 A2996 RMK AO2 SLP146 T02500239 10256 20239 53014
cycle: 12

Station Type Date Time Source
KORL TAF UTC NOAA

Error!

Example: see airport list